createdAt,value
2018-01-18T00:00:00.446Z,4.54
2018-01-18T00:01:00.413Z,4.58
2018-01-18T00:02:00.400Z,4.51
2018-01-18T00:03:00.378Z,4.54
2018-01-18T00:04:00.361Z,4.54
2018-01-18T00:05:00.354Z,4.63
2018-01-18T00:06:00.321Z,4.70
2018-01-18T00:07:00.320Z,4.75
2018-01-18T00:08:00.286Z,4.75
2018-01-18T00:09:00.263Z,4.67
2018-01-18T00:10:00.253Z,4.63
2018-01-18T00:11:00.230Z,4.63
2018-01-18T00:12:00.227Z,4.66
2018-01-18T00:13:00.192Z,4.65
2018-01-18T00:14:00.174Z,4.65
2018-01-18T00:15:00.155Z,4.70
2018-01-18T00:16:00.137Z,4.69
2018-01-18T00:17:00.121Z,4.72
2018-01-18T00:18:00.118Z,4.72
2018-01-18T00:19:00.084Z,4.63
2018-01-18T00:20:00.068Z,4.69
2018-01-18T00:21:00.045Z,4.78
2018-01-18T00:22:00.042Z,4.86
2018-01-18T00:23:00.023Z,4.88
2018-01-18T00:23:59.989Z,4.82
2018-01-18T00:25:00.031Z,4.85
2018-01-18T00:25:59.956Z,4.86
2018-01-18T00:26:59.945Z,4.80
2018-01-18T00:27:59.917Z,4.80
2018-01-18T00:28:59.899Z,4.85
2018-01-18T00:29:59.878Z,4.94
2018-01-18T00:30:59.877Z,4.85
2018-01-18T00:31:59.846Z,4.89
2018-01-18T00:32:59.824Z,4.85
2018-01-18T00:33:59.802Z,4.85
2018-01-18T00:34:59.786Z,4.85
2018-01-18T00:35:59.768Z,4.85
2018-01-18T00:36:59.767Z,4.82
2018-01-18T00:37:59.735Z,4.77
2018-01-18T00:38:59.737Z,4.85
2018-01-18T00:39:59.696Z,4.80
2018-01-18T00:40:59.694Z,4.82
2018-01-18T00:41:59.659Z,4.80
2018-01-18T00:42:59.702Z,4.84
2018-01-18T00:43:59.620Z,4.84
2018-01-18T00:44:59.599Z,4.85
2018-01-18T00:45:59.601Z,4.82
2018-01-18T00:46:59.564Z,4.80
2018-01-18T00:47:59.550Z,4.85
2018-01-18T00:48:59.548Z,4.88
2018-01-18T00:49:59.517Z,4.85
2018-01-18T00:50:59.494Z,4.92
2018-01-18T00:51:59.493Z,4.78
2018-01-18T00:52:59.471Z,4.80
2018-01-18T00:53:59.437Z,4.92
2018-01-18T00:54:59.436Z,4.96
2018-01-18T00:55:59.405Z,4.91
2018-01-18T00:56:59.384Z,4.86
2018-01-18T00:57:59.382Z,4.91
2018-01-18T00:58:59.348Z,4.82
2018-01-18T00:59:59.330Z,4.82
2018-01-18T01:00:59.325Z,4.96
2018-01-18T01:01:59.289Z,4.94
2018-01-18T01:02:59.276Z,4.85
2018-01-18T01:03:59.268Z,4.92
2018-01-18T01:04:59.238Z,4.85
2018-01-18T01:05:59.216Z,4.84
2018-01-18T01:06:59.202Z,4.86
2018-01-18T01:07:59.194Z,4.91
2018-01-18T01:08:59.168Z,4.91
2018-01-18T01:09:59.151Z,4.86
2018-01-18T01:10:59.145Z,4.91
2018-01-18T01:11:59.111Z,4.88
2018-01-18T01:12:59.091Z,4.84
2018-01-18T01:13:59.078Z,4.85
2018-01-18T01:14:59.058Z,4.86
2018-01-18T01:15:59.033Z,4.82
2018-01-18T01:16:59.033Z,4.77
2018-01-18T01:17:58.998Z,4.85
2018-01-18T01:18:58.982Z,4.85
2018-01-18T01:19:58.964Z,4.88
2018-01-18T01:20:58.950Z,4.78
2018-01-18T01:21:58.948Z,4.85
2018-01-18T01:22:58.909Z,4.80
2018-01-18T01:23:58.886Z,4.82
2018-01-18T01:24:58.872Z,4.86
2018-01-18T01:25:58.854Z,4.88
2018-01-18T01:26:58.856Z,4.92
2018-01-18T01:27:58.817Z,4.86
2018-01-18T01:28:58.799Z,4.88
2018-01-18T01:29:58.833Z,4.94
2018-01-18T01:30:58.765Z,4.89
2018-01-18T01:31:58.746Z,4.89
2018-01-18T01:32:58.742Z,4.96
2018-01-18T01:33:58.722Z,4.92
2018-01-18T01:34:58.690Z,5.06
2018-01-18T01:35:58.674Z,5.02
2018-01-18T01:36:58.654Z,4.94
2018-01-18T01:37:58.653Z,4.97
2018-01-18T01:38:58.630Z,4.89
2018-01-18T01:39:58.599Z,4.91
2018-01-18T01:40:58.578Z,4.97
2018-01-18T01:41:58.558Z,4.84
2018-01-18T01:42:58.538Z,4.77
2018-01-18T01:43:58.538Z,4.96
2018-01-18T01:44:58.506Z,4.91
2018-01-18T01:45:58.488Z,4.97
2018-01-18T01:46:58.470Z,4.97
2018-01-18T01:47:58.455Z,4.99
2018-01-18T01:48:58.446Z,5.00
2018-01-18T01:49:58.412Z,4.91
2018-01-18T01:50:58.392Z,4.89
2018-01-18T01:51:58.376Z,4.97
2018-01-18T01:52:58.356Z,4.92
2018-01-18T01:53:58.359Z,4.82
2018-01-18T01:54:58.323Z,4.88
2018-01-18T01:55:58.305Z,4.94
2018-01-18T01:56:58.286Z,4.84
2018-01-18T01:57:58.267Z,4.96
2018-01-18T01:58:58.248Z,4.85
2018-01-18T01:59:58.246Z,4.88
2018-01-18T02:00:58.212Z,4.89
2018-01-18T02:01:58.207Z,4.75
2018-01-18T02:02:58.174Z,4.80
2018-01-18T02:03:58.157Z,4.86
2018-01-18T02:04:58.136Z,4.77
2018-01-18T02:05:58.142Z,4.92
2018-01-18T02:06:58.104Z,4.91
2018-01-18T02:07:58.086Z,4.84
2018-01-18T02:08:58.066Z,4.89
2018-01-18T02:09:58.047Z,4.86
2018-01-18T02:10:58.028Z,4.96
2018-01-18T02:11:58.026Z,4.94
2018-01-18T02:12:57.991Z,4.91
2018-01-18T02:13:57.976Z,4.97
2018-01-18T02:14:57.957Z,5.03
2018-01-18T02:15:57.936Z,5.02
2018-01-18T02:16:57.936Z,5.12
2018-01-18T02:17:57.900Z,5.06
2018-01-18T02:18:57.884Z,5.02
2018-01-18T02:19:57.865Z,5.06
2018-01-18T02:20:57.861Z,5.04
2018-01-18T02:21:57.830Z,5.02
2018-01-18T02:22:57.805Z,5.02
2018-01-18T02:23:57.807Z,5.03
2018-01-18T02:24:57.775Z,5.06
2018-01-18T02:25:57.754Z,5.18
2018-01-18T02:26:57.734Z,5.10
2018-01-18T02:27:57.718Z,5.13
2018-01-18T02:28:57.720Z,5.20
2018-01-18T02:29:57.683Z,5.22
2018-01-18T02:30:57.663Z,5.21
2018-01-18T02:31:57.643Z,5.17
2018-01-18T02:32:57.627Z,5.21
2018-01-18T02:33:57.609Z,5.27
2018-01-18T02:34:57.604Z,5.31
2018-01-18T02:35:57.570Z,5.30
2018-01-18T02:36:57.552Z,5.27
2018-01-18T02:37:57.532Z,5.33
2018-01-18T02:38:57.517Z,5.24
2018-01-18T02:39:57.514Z,5.25
2018-01-18T02:40:57.481Z,5.22
2018-01-18T02:41:57.461Z,5.28
2018-01-18T02:42:57.439Z,5.33
2018-01-18T02:43:57.425Z,5.24
2018-01-18T02:44:57.424Z,5.18
2018-01-18T02:45:57.389Z,5.20
2018-01-18T02:46:57.371Z,5.25
2018-01-18T02:47:57.352Z,5.21
2018-01-18T02:48:57.343Z,5.24
2018-01-18T02:49:57.333Z,5.17
2018-01-18T02:50:57.294Z,5.13
2018-01-18T02:51:57.284Z,5.15
2018-01-18T02:52:57.283Z,5.18
2018-01-18T02:53:57.244Z,5.15
2018-01-18T02:54:57.222Z,5.20
2018-01-18T02:55:57.205Z,5.17
2018-01-18T02:56:57.202Z,5.18
2018-01-18T02:57:57.170Z,5.06
2018-01-18T02:58:57.166Z,5.09
2018-01-18T02:59:57.132Z,5.17
2018-01-18T03:00:57.111Z,5.13
2018-01-18T03:01:57.096Z,5.13
2018-01-18T03:02:57.079Z,5.15
2018-01-18T03:03:57.075Z,5.20
2018-01-18T03:04:57.041Z,5.21
2018-01-18T03:05:57.024Z,5.25
2018-01-18T03:06:57.033Z,5.18
2018-01-18T03:07:56.988Z,5.21
2018-01-18T03:08:56.969Z,5.15
2018-01-18T03:09:56.965Z,5.18
2018-01-18T03:10:56.930Z,5.15
2018-01-18T03:11:56.916Z,5.10
2018-01-18T03:12:56.919Z,5.18
2018-01-18T03:13:56.879Z,5.10
2018-01-18T03:14:56.859Z,5.12
2018-01-18T03:15:56.853Z,5.04
2018-01-18T03:16:56.830Z,5.06
2018-01-18T03:17:56.799Z,4.96
2018-01-18T03:18:56.789Z,4.88
2018-01-18T03:19:56.768Z,4.94
2018-01-18T03:20:56.764Z,4.99
2018-01-18T03:21:56.732Z,4.82
2018-01-18T03:22:56.712Z,4.86
2018-01-18T03:23:56.714Z,4.86
2018-01-18T03:24:56.675Z,4.85
2018-01-18T03:25:56.660Z,4.84
2018-01-18T03:26:56.641Z,4.88
2018-01-18T03:27:56.618Z,4.88
2018-01-18T03:28:56.603Z,4.88
2018-01-18T03:29:56.603Z,4.88
2018-01-18T03:30:56.565Z,4.72
2018-01-18T03:31:56.548Z,4.78
2018-01-18T03:32:56.529Z,4.72
2018-01-18T03:33:56.524Z,4.77
2018-01-18T03:34:56.492Z,4.77
2018-01-18T03:35:56.488Z,4.88
2018-01-18T03:36:56.472Z,4.84
2018-01-18T03:37:56.438Z,4.84
2018-01-18T03:38:56.417Z,4.75
2018-01-18T03:39:56.401Z,4.67
2018-01-18T03:40:56.398Z,4.70
2018-01-18T03:41:56.360Z,4.62
2018-01-18T03:42:56.343Z,4.59
2018-01-18T03:43:56.328Z,4.65
2018-01-18T03:44:56.318Z,4.62
2018-01-18T03:45:56.287Z,4.67
2018-01-18T03:46:56.282Z,4.72
2018-01-18T03:47:56.250Z,4.65
2018-01-18T03:48:56.233Z,4.73
2018-01-18T03:49:56.216Z,4.72
2018-01-18T03:50:56.208Z,4.72
2018-01-18T03:51:56.176Z,4.67
2018-01-18T03:52:56.159Z,4.58
2018-01-18T03:53:56.158Z,4.66
2018-01-18T03:54:56.120Z,4.67
2018-01-18T03:55:56.102Z,4.67
2018-01-18T03:56:56.080Z,4.75
2018-01-18T03:57:56.066Z,4.82
2018-01-18T03:58:56.048Z,4.78
2018-01-18T03:59:56.039Z,4.75
2018-01-18T04:00:56.028Z,4.82
2018-01-18T04:01:55.992Z,4.70
2018-01-18T04:02:55.973Z,4.55
2018-01-18T04:03:55.954Z,4.65
2018-01-18T04:04:55.945Z,4.65
2018-01-18T04:05:55.918Z,4.65
2018-01-18T04:06:55.917Z,4.60
2018-01-18T04:07:55.878Z,4.58
2018-01-18T04:08:55.863Z,4.52
2018-01-18T04:09:55.841Z,4.60
2018-01-18T04:10:55.824Z,4.62
2018-01-18T04:11:55.804Z,4.55
2018-01-18T04:12:55.810Z,4.50
2018-01-18T04:13:55.767Z,4.54
2018-01-18T04:14:55.748Z,4.51
2018-01-18T04:15:55.747Z,4.41
2018-01-18T04:16:55.714Z,4.47
2018-01-18T04:17:55.695Z,4.34
2018-01-18T04:18:55.674Z,4.42
2018-01-18T04:19:55.670Z,4.37
2018-01-18T04:20:55.639Z,4.45
2018-01-18T04:21:55.618Z,4.37
2018-01-18T04:22:55.617Z,4.42
2018-01-18T04:23:55.582Z,4.42
2018-01-18T04:24:55.562Z,4.37
2018-01-18T04:25:55.545Z,4.41
2018-01-18T04:27:16.648Z,4.41
2018-01-18T04:27:55.505Z,4.34
2018-01-18T04:28:55.489Z,4.32
2018-01-18T04:29:55.473Z,4.33
2018-01-18T04:30:55.449Z,4.32
2018-01-18T04:31:55.451Z,4.32
2018-01-18T04:32:55.413Z,4.34
2018-01-18T04:33:55.393Z,4.24
2018-01-18T04:34:55.371Z,4.30
2018-01-18T04:35:55.356Z,4.27
2018-01-18T04:36:55.341Z,4.27
2018-01-18T04:37:55.340Z,4.23
2018-01-18T04:38:55.301Z,4.26
2018-01-18T04:39:55.282Z,4.27
2018-01-18T04:40:55.263Z,4.23
2018-01-18T04:41:55.243Z,4.16
2018-01-18T04:42:55.240Z,4.23
2018-01-18T04:43:55.206Z,4.22
2018-01-18T04:44:55.192Z,4.24
2018-01-18T04:45:55.174Z,4.22
2018-01-18T04:46:55.150Z,4.24
2018-01-18T04:47:55.147Z,4.18
2018-01-18T04:48:55.112Z,4.24
2018-01-18T04:49:55.112Z,4.32
2018-01-18T04:50:55.074Z,4.27
2018-01-18T04:51:55.055Z,4.24
2018-01-18T04:52:55.050Z,4.22
2018-01-18T04:53:55.019Z,4.23
2018-01-18T04:54:54.995Z,4.34
2018-01-18T04:55:54.979Z,4.29
2018-01-18T04:56:54.960Z,4.30
2018-01-18T04:57:54.946Z,4.41
2018-01-18T04:58:54.940Z,4.37
2018-01-18T04:59:54.904Z,4.44
2018-01-18T05:00:54.882Z,4.42
2018-01-18T05:01:54.868Z,4.40
2018-01-18T05:02:54.844Z,4.40
2018-01-18T05:03:54.842Z,4.36
2018-01-18T05:04:54.855Z,4.45
2018-01-18T05:05:54.809Z,4.44
2018-01-18T05:06:54.771Z,4.41
2018-01-18T05:07:54.752Z,4.47
2018-01-18T05:08:54.735Z,4.51
2018-01-18T05:09:54.717Z,4.51
2018-01-18T05:10:54.696Z,4.55
2018-01-18T05:11:54.696Z,4.58
2018-01-18T05:12:54.656Z,4.55
2018-01-18T05:13:54.640Z,4.62
2018-01-18T05:14:54.620Z,4.58
2018-01-18T05:15:54.602Z,4.65
2018-01-18T05:16:54.600Z,4.69
2018-01-18T05:17:54.564Z,4.73
2018-01-18T05:18:54.544Z,4.82
2018-01-18T05:19:54.544Z,4.80
2018-01-18T05:20:54.509Z,4.80
2018-01-18T05:21:54.490Z,4.86
2018-01-18T05:22:54.485Z,4.89
2018-01-18T05:23:54.468Z,5.00
2018-01-18T05:24:54.432Z,5.13
2018-01-18T05:25:54.414Z,5.03
2018-01-18T05:26:54.397Z,5.13
2018-01-18T05:27:54.391Z,5.25
2018-01-18T05:28:54.357Z,5.30
2018-01-18T05:29:54.337Z,5.49
2018-01-18T05:30:54.339Z,5.57
2018-01-18T05:31:54.341Z,5.63
2018-01-18T05:32:54.283Z,5.61
2018-01-18T05:33:54.270Z,5.54
2018-01-18T05:34:54.247Z,5.64
2018-01-18T05:35:54.227Z,5.78
2018-01-18T05:36:54.227Z,5.79
2018-01-18T05:37:54.228Z,5.93
2018-01-18T05:38:54.186Z,5.85
2018-01-18T05:39:54.154Z,5.89
2018-01-18T05:40:54.138Z,5.99
2018-01-18T05:41:54.134Z,5.89
2018-01-18T05:42:54.097Z,5.97
2018-01-18T05:43:54.080Z,6.09
2018-01-18T05:44:54.065Z,6.09
2018-01-18T05:45:54.049Z,6.17
2018-01-18T05:46:54.025Z,6.15
2018-01-18T05:47:54.018Z,6.28
2018-01-18T05:48:53.989Z,6.19
2018-01-18T05:49:53.972Z,6.27
2018-01-18T05:50:53.965Z,6.38
2018-01-18T05:51:53.950Z,6.34
2018-01-18T05:52:53.917Z,6.38
2018-01-18T05:53:53.897Z,6.34
2018-01-18T05:54:53.877Z,6.40
2018-01-18T05:55:53.859Z,6.40
2018-01-18T05:56:53.846Z,6.58
2018-01-18T05:57:53.839Z,6.58
2018-01-18T05:58:53.806Z,6.73
2018-01-18T05:59:53.803Z,6.66
2018-01-18T06:00:53.770Z,6.73
2018-01-18T06:01:53.752Z,6.64
2018-01-18T06:02:53.736Z,6.70
2018-01-18T06:03:53.719Z,6.67
2018-01-18T06:04:53.695Z,6.76
2018-01-18T06:05:53.698Z,6.77
2018-01-18T06:06:53.666Z,6.80
2018-01-18T06:07:53.647Z,6.71
2018-01-18T06:08:53.626Z,6.69
2018-01-18T06:09:53.610Z,6.71
2018-01-18T06:10:53.607Z,6.74
2018-01-18T06:11:53.574Z,6.70
2018-01-18T06:12:53.557Z,6.74
2018-01-18T06:13:53.535Z,6.70
2018-01-18T06:14:53.517Z,6.67
2018-01-18T06:15:53.500Z,6.70
2018-01-18T06:16:53.510Z,6.71
2018-01-18T06:17:53.466Z,6.76
2018-01-18T06:18:53.445Z,6.79
2018-01-18T06:19:53.432Z,6.71
2018-01-18T06:20:53.413Z,6.56
2018-01-18T06:21:53.411Z,6.61
2018-01-18T06:22:53.375Z,6.58
2018-01-18T06:23:53.360Z,6.58
2018-01-18T06:24:53.341Z,6.59
2018-01-18T06:25:53.324Z,6.61
2018-01-18T06:26:53.328Z,6.62
2018-01-18T06:27:53.289Z,6.56
2018-01-18T06:28:53.271Z,6.66
2018-01-18T06:29:53.254Z,6.54
2018-01-18T06:30:53.233Z,6.62
2018-01-18T06:31:53.219Z,6.70
2018-01-18T06:32:53.215Z,6.59
2018-01-18T06:33:53.181Z,6.71
2018-01-18T06:34:53.177Z,6.73
2018-01-18T06:35:53.147Z,6.73
2018-01-18T06:36:53.129Z,6.77
2018-01-18T06:37:53.107Z,6.74
2018-01-18T06:38:53.114Z,6.77
2018-01-18T06:39:53.072Z,6.76
2018-01-18T06:40:53.053Z,6.81
2018-01-18T06:41:53.040Z,6.81
2018-01-18T06:42:53.022Z,6.77
2018-01-18T06:43:53.005Z,6.80
2018-01-18T06:44:53.002Z,6.70
2018-01-18T06:45:52.987Z,6.81
2018-01-18T06:46:52.951Z,6.73
2018-01-18T06:47:52.933Z,6.74
2018-01-18T06:48:52.916Z,6.79
2018-01-18T06:49:52.900Z,6.79
2018-01-18T06:50:52.879Z,6.74
2018-01-18T06:51:52.879Z,6.71
2018-01-18T06:52:52.846Z,6.73
2018-01-18T06:53:52.828Z,6.81
2018-01-18T06:54:52.808Z,6.76
2018-01-18T06:55:52.790Z,6.80
2018-01-18T06:56:52.787Z,6.79
2018-01-18T06:57:52.754Z,6.81
2018-01-18T06:58:52.739Z,6.81
2018-01-18T06:59:52.738Z,6.88
2018-01-18T07:00:52.705Z,6.98
2018-01-18T07:01:52.688Z,6.94
2018-01-18T07:02:52.684Z,6.99
2018-01-18T07:03:52.649Z,7.13
2018-01-18T07:04:52.632Z,7.21
2018-01-18T07:05:52.616Z,7.20
2018-01-18T07:06:52.597Z,7.09
2018-01-18T07:07:52.583Z,7.10
2018-01-18T07:08:52.580Z,7.20
2018-01-18T07:09:52.545Z,7.10
2018-01-18T07:10:52.555Z,7.20
2018-01-18T07:11:52.513Z,7.24
2018-01-18T07:12:52.494Z,7.27
2018-01-18T07:13:52.475Z,7.24
2018-01-18T07:14:52.465Z,7.25
2018-01-18T07:15:52.443Z,7.31
2018-01-18T07:16:52.444Z,7.30
2018-01-18T07:17:52.920Z,7.37
2018-01-18T07:18:52.398Z,7.53
2018-01-18T07:19:52.377Z,7.50
2018-01-18T07:20:52.376Z,7.50
2018-01-18T07:21:52.361Z,7.55
2018-01-18T07:22:52.331Z,7.64
2018-01-18T07:23:52.315Z,7.68
2018-01-18T07:24:52.298Z,7.64
2018-01-18T07:25:52.281Z,7.79
2018-01-18T07:26:52.266Z,7.77
2018-01-18T07:27:52.265Z,7.83
2018-01-18T07:28:52.237Z,7.80
2018-01-18T07:29:52.221Z,7.86
2018-01-18T07:30:52.222Z,7.89
2018-01-18T07:32:13.197Z,7.87
2018-01-18T07:32:52.174Z,7.85
2018-01-18T07:33:52.158Z,7.92
2018-01-18T07:34:52.142Z,8.01
2018-01-18T07:35:52.146Z,7.97
2018-01-18T07:36:52.115Z,8.10
2018-01-18T07:37:52.099Z,8.08
2018-01-18T07:38:52.080Z,8.01
2018-01-18T07:39:52.070Z,8.10
2018-01-18T07:40:52.071Z,8.20
2018-01-18T07:41:52.035Z,8.20
2018-01-18T07:42:52.019Z,8.22
2018-01-18T07:43:52.009Z,8.19
2018-01-18T07:44:51.988Z,8.26
2018-01-18T07:45:51.980Z,8.28
2018-01-18T07:46:51.978Z,8.26
2018-01-18T07:47:51.952Z,8.37
2018-01-18T07:48:51.979Z,8.40
2018-01-18T07:49:51.919Z,8.44
2018-01-18T07:50:51.906Z,8.48
2018-01-18T07:51:51.904Z,8.48
2018-01-18T07:52:51.875Z,8.50
2018-01-18T07:53:51.866Z,8.52
2018-01-18T07:54:51.848Z,8.52
2018-01-18T07:55:51.828Z,8.63
2018-01-18T07:56:51.816Z,8.53
2018-01-18T07:57:51.817Z,8.59
2018-01-18T07:58:51.791Z,8.77
2018-01-18T07:59:51.773Z,8.81
2018-01-18T08:00:51.759Z,8.77
2018-01-18T08:01:51.746Z,8.83
2018-01-18T08:02:51.746Z,8.77
2018-01-18T08:03:51.716Z,8.83
2018-01-18T08:04:51.703Z,8.81
2018-01-18T08:05:51.690Z,8.98
2018-01-18T08:06:51.673Z,8.96
2018-01-18T08:07:51.672Z,9.01
2018-01-18T08:08:51.644Z,8.95
2018-01-18T08:09:51.632Z,9.04
2018-01-18T08:10:51.630Z,9.08
2018-01-18T08:11:51.600Z,9.14
2018-01-18T08:12:51.589Z,9.15
2018-01-18T08:13:51.589Z,9.21
2018-01-18T08:14:51.558Z,9.26
2018-01-18T08:15:51.546Z,9.31
2018-01-18T08:16:51.808Z,9.29
2018-01-18T08:17:51.518Z,9.31
2018-01-18T08:18:51.523Z,9.32
2018-01-18T08:19:51.494Z,9.28
2018-01-18T08:20:51.476Z,9.32
2018-01-18T08:21:51.464Z,9.40
2018-01-18T08:22:51.448Z,9.47
2018-01-18T08:23:51.434Z,9.42
2018-01-18T08:24:51.442Z,9.51
2018-01-18T08:25:51.409Z,9.56
2018-01-18T08:26:51.398Z,9.64
2018-01-18T08:27:51.383Z,9.58
2018-01-18T08:28:51.366Z,9.61
2018-01-18T08:29:51.370Z,9.61
2018-01-18T08:30:51.339Z,9.66
2018-01-18T08:31:51.327Z,9.60
2018-01-18T08:32:51.315Z,9.66
2018-01-18T08:33:51.299Z,9.86
2018-01-18T08:34:51.300Z,9.81
2018-01-18T08:35:51.275Z,9.86
2018-01-18T08:36:51.274Z,9.81
2018-01-18T08:37:51.246Z,9.78
2018-01-18T08:38:51.229Z,9.89
2018-01-18T08:39:51.230Z,9.93
2018-01-18T08:40:51.207Z,9.91
2018-01-18T08:41:51.212Z,9.96
2018-01-18T08:42:51.192Z,9.93
2018-01-18T08:43:51.165Z,9.97
2018-01-18T08:44:51.152Z,10.08
2018-01-18T08:45:51.138Z,9.99
2018-01-18T08:46:51.899Z,10.05
2018-01-18T08:47:51.110Z,10.15
2018-01-18T08:48:51.107Z,10.12
2018-01-18T08:49:51.088Z,10.23
2018-01-18T08:50:51.070Z,10.18
2018-01-18T08:51:51.058Z,10.15
2018-01-18T08:52:51.062Z,10.25
2018-01-18T08:53:51.032Z,10.27
2018-01-18T08:54:51.016Z,10.40
2018-01-18T08:55:51.005Z,10.42
2018-01-18T08:56:50.994Z,10.45
2018-01-18T08:57:50.995Z,10.47
2018-01-18T08:58:50.962Z,10.52
2018-01-18T08:59:50.957Z,10.48
2018-01-18T09:00:50.940Z,10.56
2018-01-18T09:01:50.934Z,10.56
2018-01-18T09:02:50.915Z,10.55
2018-01-18T09:03:50.916Z,10.47
2018-01-18T09:04:50.903Z,10.52
2018-01-18T09:05:50.876Z,10.53
2018-01-18T09:06:50.865Z,10.48
2018-01-18T09:07:50.861Z,10.45
2018-01-18T09:08:50.852Z,10.41
2018-01-18T09:09:50.832Z,10.51
2018-01-18T09:10:50.810Z,10.52
2018-01-18T09:11:50.801Z,10.55
2018-01-18T09:12:50.804Z,10.56
2018-01-18T09:13:50.775Z,10.60
2018-01-18T09:14:50.761Z,10.66
2018-01-18T09:15:50.752Z,10.63
2018-01-18T09:16:50.741Z,10.61
2018-01-18T09:17:50.724Z,10.68
2018-01-18T09:18:50.738Z,10.67
2018-01-18T09:19:50.697Z,10.61
2018-01-18T09:20:50.687Z,10.74
2018-01-18T09:21:50.676Z,10.68
2018-01-18T09:22:50.678Z,10.74
2018-01-18T09:23:50.663Z,10.73
2018-01-18T09:24:50.634Z,10.73
2018-01-18T09:25:50.629Z,10.71
2018-01-18T09:26:50.624Z,10.73
2018-01-18T09:27:50.593Z,10.64
2018-01-18T09:28:50.589Z,10.74
2018-01-18T09:29:50.573Z,10.76
2018-01-18T09:30:50.563Z,10.64
2018-01-18T09:31:50.549Z,10.74
2018-01-18T09:32:50.550Z,10.76
2018-01-18T09:33:50.523Z,10.79
2018-01-18T09:34:50.542Z,10.86
2018-01-18T09:35:50.498Z,10.86
2018-01-18T09:36:50.486Z,10.88
2018-01-18T09:37:50.485Z,10.84
2018-01-18T09:38:50.470Z,10.82
2018-01-18T09:39:50.445Z,10.78
2018-01-18T09:40:50.434Z,10.73
2018-01-18T09:41:50.423Z,10.85
2018-01-18T09:42:50.435Z,10.84
2018-01-18T09:43:50.398Z,10.70
2018-01-18T09:44:50.386Z,10.73
2018-01-18T09:45:50.374Z,10.78
2018-01-18T09:46:50.360Z,10.71
2018-01-18T09:47:50.349Z,10.66
2018-01-18T09:48:50.354Z,10.59
2018-01-18T09:49:50.325Z,10.52
2018-01-18T09:50:50.310Z,10.51
2018-01-18T09:51:50.307Z,10.47
2018-01-18T09:52:50.290Z,10.41
2018-01-18T09:53:50.274Z,10.38
2018-01-18T09:54:50.272Z,10.25
2018-01-18T09:55:50.248Z,10.27
2018-01-18T09:56:50.237Z,10.09
2018-01-18T09:57:50.221Z,10.02
2018-01-18T09:58:50.210Z,9.99
2018-01-18T09:59:50.218Z,9.90
2018-01-18T10:00:50.187Z,9.91
2018-01-18T10:01:50.176Z,9.90
2018-01-18T10:02:50.161Z,9.91
2018-01-18T10:03:50.145Z,9.84
2018-01-18T10:04:50.137Z,9.79
2018-01-18T10:05:50.140Z,9.84
2018-01-18T10:06:50.114Z,9.78
2018-01-18T10:07:50.098Z,9.69
2018-01-18T10:08:50.088Z,9.72
2018-01-18T10:09:50.094Z,9.61
2018-01-18T10:10:50.071Z,9.66
2018-01-18T10:11:50.087Z,9.61
2018-01-18T10:12:50.036Z,9.58
2018-01-18T10:13:50.024Z,9.57
2018-01-18T10:14:50.009Z,9.64
2018-01-18T10:15:50.071Z,9.58
2018-01-18T10:16:49.996Z,9.51
2018-01-18T10:17:49.972Z,9.53
2018-01-18T10:18:49.958Z,9.50
2018-01-18T10:19:50.034Z,9.51
2018-01-18T10:20:49.946Z,9.51
2018-01-18T10:21:49.940Z,9.39
2018-01-18T10:22:49.905Z,9.39
2018-01-18T10:23:49.897Z,9.43
2018-01-18T10:24:49.893Z,9.39
2018-01-18T10:25:49.871Z,9.33
2018-01-18T10:26:49.857Z,9.38
2018-01-18T10:27:49.857Z,9.35
2018-01-18T10:28:49.826Z,9.40
2018-01-18T10:29:49.811Z,9.40
2018-01-18T10:30:49.801Z,9.36
2018-01-18T10:31:49.787Z,9.28
2018-01-18T10:32:49.783Z,9.32
2018-01-18T10:33:49.781Z,9.29
2018-01-18T10:34:49.749Z,9.23
2018-01-18T10:35:49.735Z,9.23
2018-01-18T10:36:49.721Z,9.20
2018-01-18T10:37:49.725Z,9.21
2018-01-18T10:38:49.711Z,9.08
2018-01-18T10:39:49.683Z,9.02
2018-01-18T10:40:49.681Z,9.02
2018-01-18T10:41:49.660Z,8.95
2018-01-18T10:42:49.645Z,8.86
2018-01-18T10:43:49.648Z,8.79
2018-01-18T10:44:49.619Z,8.89
2018-01-18T10:45:49.607Z,8.76
2018-01-18T10:46:49.797Z,8.77
2018-01-18T10:47:49.577Z,8.79
2018-01-18T10:48:49.588Z,8.70
2018-01-18T10:49:49.555Z,8.73
2018-01-18T10:50:49.541Z,8.56
2018-01-18T10:51:49.530Z,8.62
2018-01-18T10:52:49.510Z,8.59
2018-01-18T10:53:49.498Z,8.56
2018-01-18T10:54:49.503Z,8.47
2018-01-18T10:55:49.472Z,8.43
2018-01-18T10:56:49.464Z,8.41
2018-01-18T10:57:49.449Z,8.44
2018-01-18T10:58:49.432Z,8.36
2018-01-18T10:59:49.437Z,8.26
2018-01-18T11:00:49.420Z,8.45
2018-01-18T11:01:49.392Z,8.37
2018-01-18T11:02:49.376Z,8.28
2018-01-18T11:03:49.369Z,8.25
2018-01-18T11:04:49.351Z,8.36
2018-01-18T11:05:49.353Z,8.19
2018-01-18T11:06:49.340Z,8.23
2018-01-18T11:07:49.315Z,8.19
2018-01-18T11:08:49.298Z,8.22
2018-01-18T11:09:49.288Z,8.19
2018-01-18T11:10:49.285Z,8.18
2018-01-18T11:11:49.260Z,8.23
2018-01-18T11:12:49.245Z,8.05
2018-01-18T11:13:49.231Z,8.08
2018-01-18T11:14:49.217Z,8.05
2018-01-18T11:15:49.205Z,8.00
2018-01-18T11:16:49.209Z,8.04
2018-01-18T11:17:49.179Z,7.97
2018-01-18T11:18:49.165Z,8.05
2018-01-18T11:19:49.147Z,7.97
2018-01-18T11:20:49.139Z,7.97
2018-01-18T11:21:49.122Z,7.97
2018-01-18T11:22:49.126Z,7.97
2018-01-18T11:23:49.095Z,8.05
2018-01-18T11:24:49.082Z,8.00
2018-01-18T11:25:49.070Z,7.93
2018-01-18T11:26:49.056Z,7.97
2018-01-18T11:27:49.052Z,7.95
2018-01-18T11:28:49.042Z,7.92
2018-01-18T11:29:49.018Z,8.04
2018-01-18T11:30:49.000Z,8.04
2018-01-18T11:31:48.987Z,8.05
2018-01-18T11:32:48.990Z,8.19
2018-01-18T11:33:48.956Z,8.38
2018-01-18T11:34:48.946Z,8.25
2018-01-18T11:35:48.934Z,8.19
2018-01-18T11:36:48.929Z,8.18
2018-01-18T11:37:48.922Z,8.05
2018-01-18T11:38:48.891Z,8.05
2018-01-18T11:39:48.878Z,8.05
2018-01-18T11:40:48.865Z,8.08
2018-01-18T11:41:48.855Z,8.10
2018-01-18T11:42:48.859Z,8.05
2018-01-18T11:43:48.827Z,8.07
2018-01-18T11:44:48.826Z,7.98
2018-01-18T11:45:48.798Z,8.08
2018-01-18T11:46:48.785Z,8.11
2018-01-18T11:47:48.784Z,8.23
2018-01-18T11:48:48.757Z,8.48
2018-01-18T11:49:48.744Z,8.55
2018-01-18T11:50:48.732Z,8.50
2018-01-18T11:51:48.718Z,8.43
2018-01-18T11:52:48.722Z,8.45
2018-01-18T11:53:48.690Z,8.40
2018-01-18T11:54:48.677Z,8.37
2018-01-18T11:55:48.667Z,8.36
2018-01-18T11:56:48.657Z,8.44
2018-01-18T11:57:48.636Z,8.38
2018-01-18T11:58:48.642Z,8.30
2018-01-18T11:59:48.610Z,8.20
2018-01-18T12:00:48.600Z,8.12
2018-01-18T12:01:48.584Z,8.02
2018-01-18T12:02:48.574Z,7.98
2018-01-18T12:03:48.557Z,8.01
2018-01-18T12:04:48.556Z,8.10
2018-01-18T12:05:48.534Z,8.01
2018-01-18T12:06:48.522Z,8.04
2018-01-18T12:07:48.503Z,8.07
2018-01-18T12:08:48.493Z,8.00
2018-01-18T12:09:48.500Z,8.01
2018-01-18T12:10:48.473Z,8.04
2018-01-18T12:11:48.452Z,8.01
2018-01-18T12:12:48.442Z,8.02
2018-01-18T12:13:48.431Z,7.93
2018-01-18T12:14:48.409Z,8.07
2018-01-18T12:15:48.412Z,7.95
2018-01-18T12:16:48.406Z,7.93
2018-01-18T12:17:48.375Z,7.98
2018-01-18T12:18:48.406Z,8.05
2018-01-18T12:19:48.348Z,8.02
2018-01-18T12:20:48.356Z,8.02
2018-01-18T12:21:48.337Z,8.10
2018-01-18T12:22:48.307Z,8.12
2018-01-18T12:23:48.295Z,8.34
2018-01-18T12:24:48.284Z,8.23
2018-01-18T12:25:48.286Z,8.22
2018-01-18T12:26:48.266Z,8.20
2018-01-18T12:27:48.243Z,8.20
2018-01-18T12:28:48.230Z,8.18
2018-01-18T12:29:48.215Z,8.08
2018-01-18T12:30:48.202Z,7.95
2018-01-18T12:31:48.199Z,7.97
2018-01-18T12:32:48.176Z,7.85
2018-01-18T12:33:48.177Z,7.87
2018-01-18T12:34:48.153Z,7.85
2018-01-18T12:35:48.138Z,7.85
2018-01-18T12:36:48.124Z,7.92
2018-01-18T12:37:48.110Z,7.89
2018-01-18T12:38:48.164Z,7.92
2018-01-18T12:39:48.081Z,7.82
2018-01-18T12:40:48.068Z,7.80
2018-01-18T12:41:48.070Z,7.71
2018-01-18T12:42:48.052Z,7.68
2018-01-18T12:43:48.031Z,7.61
2018-01-18T12:44:48.018Z,7.61
2018-01-18T12:45:48.008Z,7.60
2018-01-18T12:46:48.006Z,7.61
2018-01-18T12:47:47.971Z,7.50
2018-01-18T12:48:47.963Z,7.40
2018-01-18T12:49:47.949Z,7.48
2018-01-18T12:50:47.936Z,7.52
2018-01-18T12:51:47.923Z,7.45
2018-01-18T12:52:47.923Z,7.34
2018-01-18T12:53:47.896Z,7.32
2018-01-18T12:54:47.909Z,7.30
2018-01-18T12:55:47.869Z,7.30
2018-01-18T12:56:47.857Z,7.15
2018-01-18T12:57:47.841Z,7.12
2018-01-18T12:58:47.827Z,7.13
2018-01-18T12:59:47.830Z,7.06
2018-01-18T13:00:47.800Z,7.16
2018-01-18T13:01:47.784Z,7.16
2018-01-18T13:02:47.776Z,7.12
2018-01-18T13:03:47.761Z,7.25
2018-01-18T13:04:47.758Z,7.30
2018-01-18T13:05:47.845Z,7.30
2018-01-18T13:06:47.719Z,7.30
2018-01-18T13:07:47.703Z,7.35
2018-01-18T13:08:47.694Z,7.30
2018-01-18T13:09:47.681Z,7.23
2018-01-18T13:10:47.663Z,7.23
2018-01-18T13:11:47.668Z,7.25
2018-01-18T13:12:47.642Z,7.28
2018-01-18T13:13:47.624Z,7.24
2018-01-18T13:14:47.610Z,7.34
2018-01-18T13:15:47.619Z,7.30